Time;durP1;ratioP1;P1;durP2;ratioP2;P2;SDS_P1;SDS_P2;PMS_P1;PMS_P2;Temp;Humidity;BMP_temperature;BMP_pressure;BME280_temperature;BME280_humidity;BME280_pressure;Samples;Min_cycle;Max_cycle;Signal;HPM_P1;HPM_P2
2022/11/19 00:01:08;;;;;;;49.85;28.98;;;;;;;;;;5034029;28;20053;-85
2022/11/19 00:03:36;;;;;;;53.33;28.60;;;;;;;;;;5035069;28;20437;-86
2022/11/19 00:06:04;;;;;;;48.35;27.80;;;;;;;;;;5033999;28;20517;-86
2022/11/19 00:08:32;;;;;;;51.45;28.70;;;;;;;;;;5033970;28;20589;-85
2022/11/19 00:11:07;;;;;;;49.30;27.98;;;;;;;;;;5033907;28;20053;-85
2022/11/19 00:13:36;;;;;;;46.10;26.65;;;;;;;;;;5033729;28;20472;-85
2022/11/19 00:16:07;;;;;;;46.70;27.15;;;;;;;;;;5033957;28;20413;-85
2022/11/19 00:18:34;;;;;;;48.15;26.50;;;;;;;;;;5034352;28;20049;-85
2022/11/19 00:21:03;;;;;;;47.58;26.98;;;;;;;;;;5034818;28;20053;-85
2022/11/19 00:23:30;;;;;;;45.85;26.42;;;;;;;;;;5033564;28;20132;-85
2022/11/19 00:26:02;;;;;;;41.17;25.50;;;;;;;;;;5034394;28;20095;-85
2022/11/19 00:28:29;;;;;;;43.00;25.87;;;;;;;;;;5035114;28;20057;-85
2022/11/19 00:31:00;;;;;;;43.08;24.65;;;;;;;;;;5033211;28;20197;-85
2022/11/19 00:33:28;;;;;;;44.35;24.63;;;;;;;;;;5033537;28;20536;-84
2022/11/19 00:35:56;;;;;;;47.05;26.75;;;;;;;;;;5033577;28;20049;-85
2022/11/19 00:38:23;;;;;;;50.55;27.27;;;;;;;;;;5033432;28;20056;-85
2022/11/19 00:40:51;;;;;;;50.42;27.25;;;;;;;;;;5034385;28;20057;-85
2022/11/19 00:46:04;;;;;;;49.30;27.23;;;;;;;;;;5034391;28;20493;-85
2022/11/19 00:48:31;;;;;;;53.00;28.77;;;;;;;;;;5034181;28;20136;-85
2022/11/19 00:50:58;;;;;;;51.58;29.15;;;;;;;;;;5034074;28;20052;-84
2022/11/19 00:53:25;;;;;;;93.40;47.88;;;;;;;;;;5033471;28;20052;-85
2022/11/19 00:55:53;;;;;;;52.88;28.35;;;;;;;;;;5032973;28;20568;-85
2022/11/19 00:58:21;;;;;;;59.17;33.33;;;;;;;;;;5034042;28;20450;-86
2022/11/19 01:00:48;;;;;;;92.90;45.38;;;;;;;;;;5034269;28;20065;-85
2022/11/19 01:03:15;;;;;;;64.40;34.15;;;;;;;;;;5034131;28;20041;-85
2022/11/19 01:05:42;;;;;;;56.17;30.58;;;;;;;;;;5033045;28;20481;-83
2022/11/19 01:08:09;;;;;;;48.42;26.70;;;;;;;;;;5034159;28;20045;-83
2022/11/19 01:10:37;;;;;;;49.47;29.85;;;;;;;;;;5033677;28;20064;-85
2022/11/19 01:15:50;;;;;;;46.10;25.67;;;;;;;;;;5033725;28;20049;-84
2022/11/19 01:18:18;;;;;;;46.47;29.10;;;;;;;;;;5032431;28;20501;-85
2022/11/19 01:20:46;;;;;;;47.08;26.33;;;;;;;;;;5032644;28;20080;-86
2022/11/19 01:23:13;;;;;;;45.80;26.35;;;;;;;;;;5033908;28;20056;-86
2022/11/19 01:25:40;;;;;;;43.53;25.58;;;;;;;;;;5032896;28;20065;-86
2022/11/19 01:28:07;;;;;;;39.28;24.35;;;;;;;;;;5032421;28;20068;-86
2022/11/19 01:30:35;;;;;;;40.70;24.45;;;;;;;;;;5033283;28;20057;-86
2022/11/19 01:33:02;;;;;;;40.05;22.45;;;;;;;;;;5032482;28;20049;-84
2022/11/19 01:35:29;;;;;;;40.22;24.17;;;;;;;;;;5032133;28;20060;-84
2022/11/19 01:37:56;;;;;;;35.80;22.48;;;;;;;;;;5032479;28;20052;-86
2022/11/19 01:40:24;;;;;;;35.65;21.83;;;;;;;;;;5035024;28;20132;-86
2022/11/19 01:42:54;;;;;;;36.92;21.77;;;;;;;;;;5035619;28;20053;-86
2022/11/19 01:45:35;;;;;;;38.15;22.27;;;;;;;;;;5053315;28;20061;-84
2022/11/19 01:48:28;;;;;;;37.75;22.02;;;;;;;;;;5053178;28;20045;-86
2022/11/19 01:50:58;;;;;;;37.35;24.38;;;;;;;;;;5050299;28;20049;-85
2022/11/19 01:53:28;;;;;;;37.13;21.92;;;;;;;;;;5035569;28;20116;-86
2022/11/19 01:56:02;;;;;;;32.60;21.58;;;;;;;;;;5053663;28;20036;-86
2022/11/19 01:58:31;;;;;;;34.28;20.80;;;;;;;;;;5035595;28;20405;-86
2022/11/19 02:00:58;;;;;;;32.00;20.55;;;;;;;;;;5035498;28;20056;-84
2022/11/19 02:03:27;;;;;;;35.90;22.88;;;;;;;;;;5053233;28;20052;-84
2022/11/19 02:05:55;;;;;;;33.03;20.30;;;;;;;;;;5035513;28;20060;-84
2022/11/19 02:08:33;;;;;;;30.98;19.20;;;;;;;;;;5053304;28;20445;-86
2022/11/19 02:11:07;;;;;;;27.95;18.10;;;;;;;;;;5035212;28;20053;-86
2022/11/19 02:13:34;;;;;;;;;;;;;;;;;;5035826;28;20413;-86
2022/11/19 02:16:08;;;;;;;29.98;19.77;;;;;;;;;;5052861;28;19925;-87
2022/11/19 02:18:39;;;;;;;26.30;18.00;;;;;;;;;;5052709;28;20055;-84
2022/11/19 02:21:23;;;;;;;24.13;16.25;;;;;;;;;;5035532;28;20156;-87
2022/11/19 02:23:53;;;;;;;28.55;17.90;;;;;;;;;;5053346;28;20080;-87
2022/11/19 02:26:39;;;;;;;25.83;17.70;;;;;;;;;;5035437;28;20417;-87
2022/11/19 02:29:23;;;;;;;24.73;16.77;;;;;;;;;;5035313;28;20135;-86
2022/11/19 02:32:08;;;;;;;21.52;16.13;;;;;;;;;;5052942;28;20512;-86
2022/11/19 02:34:40;;;;;;;21.70;15.00;;;;;;;;;;5052838;28;20486;-86
2022/11/19 02:37:28;;;;;;;24.15;17.50;;;;;;;;;;5035336;28;20052;-86
2022/11/19 02:40:04;;;;;;;19.80;14.85;;;;;;;;;;5035078;28;20568;-87
2022/11/19 02:42:34;;;;;;;21.75;15.65;;;;;;;;;;5052518;28;20056;-87
2022/11/19 02:45:02;;;;;;;18.70;13.52;;;;;;;;;;5053257;28;20053;-86
2022/11/19 02:47:32;;;;;;;19.50;14.10;;;;;;;;;;5052746;28;20045;-87
2022/11/19 02:50:02;;;;;;;19.92;14.60;;;;;;;;;;5052598;28;20044;-87
2022/11/19 02:52:30;;;;;;;20.52;14.40;;;;;;;;;;5035431;28;20049;-86
2022/11/19 02:54:57;;;;;;;20.73;13.73;;;;;;;;;;5061118;28;20059;-87
2022/11/19 02:57:24;;;;;;;18.25;14.45;;;;;;;;;;5061819;28;20059;-86
2022/11/19 03:05:48;;;;;;;19.38;14.18;;;;;;;;;;5056611;28;20489;-87
2022/11/19 03:08:15;;;;;;;16.90;13.23;;;;;;;;;;5038700;28;20557;-87
2022/11/19 03:10:55;;;;;;;17.08;13.50;;;;;;;;;;5038628;28;20052;-86
2022/11/19 03:19:16;;;;;;;17.95;13.77;;;;;;;;;;5056297;28;20160;-87
2022/11/19 03:21:51;;;;;;;18.83;14.15;;;;;;;;;;5039042;28;20496;-87
2022/11/19 03:24:21;;;;;;;16.58;13.55;;;;;;;;;;5056270;28;20132;-84
2022/11/19 03:26:51;;;;;;;17.38;13.70;;;;;;;;;;5056172;28;20053;-87
2022/11/19 03:29:19;;;;;;;17.65;13.18;;;;;;;;;;5055938;28;20067;-87
2022/11/19 03:31:50;;;;;;;20.23;13.40;;;;;;;;;;5038668;28;20045;-87
2022/11/19 03:34:20;;;;;;;17.35;13.48;;;;;;;;;;5056080;28;20508;-85
2022/11/19 03:36:48;;;;;;;18.92;13.68;;;;;;;;;;5056243;28;20567;-86
2022/11/19 03:39:17;;;;;;;19.70;14.02;;;;;;;;;;5038521;28;20056;-87
2022/11/19 03:41:47;;;;;;;18.98;13.63;;;;;;;;;;5038570;28;20107;-85
2022/11/19 03:44:18;;;;;;;18.77;14.18;;;;;;;;;;5056138;28;20059;-87
2022/11/19 03:46:46;;;;;;;19.90;13.88;;;;;;;;;;5038358;28;20168;-86
2022/11/19 03:49:14;;;;;;;18.75;13.90;;;;;;;;;;5038531;28;20132;-87
2022/11/19 03:51:56;;;;;;;19.60;14.93;;;;;;;;;;5038231;28;20049;-87
2022/11/19 03:54:23;;;;;;;21.55;14.80;;;;;;;;;;5055727;28;20048;-87
2022/11/19 03:56:51;;;;;;;70.60;35.08;;;;;;;;;;5038286;28;20382;-87
2022/11/19 03:59:18;;;;;;;36.17;21.92;;;;;;;;;;5038092;28;20128;-87
2022/11/19 04:01:47;;;;;;;22.95;15.93;;;;;;;;;;5038605;28;20409;-87
2022/11/19 04:07:00;;;;;;;20.73;15.23;;;;;;;;;;5054840;28;20049;-88
2022/11/19 04:09:28;;;;;;;23.52;16.42;;;;;;;;;;5039394;28;20045;-88
2022/11/19 04:11:55;;;;;;;20.02;14.90;;;;;;;;;;5065694;28;20059;-85
2022/11/19 04:14:22;;;;;;;18.75;14.43;;;;;;;;;;5038220;28;20052;-87
2022/11/19 04:16:49;;;;;;;22.35;15.70;;;;;;;;;;5055379;28;20053;-85
2022/11/19 04:19:17;;;;;;;24.23;17.52;;;;;;;;;;5037153;28;20053;-87
2022/11/19 04:21:44;;;;;;;28.20;19.55;;;;;;;;;;5037847;28;20041;-88
2022/11/19 04:24:12;;;;;;;21.88;16.05;;;;;;;;;;5055078;28;20053;-88
2022/11/19 04:26:39;;;;;;;31.75;20.73;;;;;;;;;;5037467;28;20041;-87
2022/11/19 04:29:06;;;;;;;22.77;16.38;;;;;;;;;;5037368;28;20413;-88
2022/11/19 04:31:33;;;;;;;22.50;15.23;;;;;;;;;;5037513;28;20056;-87
2022/11/19 04:34:01;;;;;;;28.00;19.90;;;;;;;;;;5037670;28;20079;-87
2022/11/19 04:36:28;;;;;;;30.58;21.42;;;;;;;;;;5037359;28;20416;-87
2022/11/19 04:38:55;;;;;;;21.52;15.32;;;;;;;;;;5037703;28;20053;-87
2022/11/19 04:41:23;;;;;;;25.77;16.90;;;;;;;;;;5055008;28;20413;-88
2022/11/19 04:43:50;;;;;;;21.38;16.80;;;;;;;;;;5035890;28;20052;-88
2022/11/19 04:46:17;;;;;;;28.55;18.88;;;;;;;;;;5037106;28;20064;-87
2022/11/19 04:48:44;;;;;;;21.80;16.63;;;;;;;;;;5037479;28;20053;-85
2022/11/19 04:51:11;;;;;;;23.15;15.85;;;;;;;;;;5037182;28;20060;-85
2022/11/19 04:53:39;;;;;;;21.77;15.45;;;;;;;;;;5037315;28;20484;-85
2022/11/19 04:56:06;;;;;;;23.83;16.25;;;;;;;;;;5043226;28;20063;-88
2022/11/19 04:58:33;;;;;;;19.75;14.73;;;;;;;;;;5037241;28;20060;-87
2022/11/19 05:01:01;;;;;;;21.55;16.08;;;;;;;;;;5036725;28;20052;-88
2022/11/19 05:03:28;;;;;;;20.23;15.48;;;;;;;;;;5037129;28;20040;-87
2022/11/19 05:05:55;;;;;;;21.15;16.00;;;;;;;;;;5037139;28;20401;-87
2022/11/19 05:08:23;;;;;;;22.98;16.38;;;;;;;;;;5036755;28;20049;-87
2022/11/19 05:10:50;;;;;;;20.42;14.93;;;;;;;;;;5036812;28;20124;-87
2022/11/19 05:13:17;;;;;;;21.73;15.52;;;;;;;;;;5036738;28;20060;-87
2022/11/19 05:15:45;;;;;;;23.48;15.55;;;;;;;;;;5036429;28;20055;-85
2022/11/19 05:18:12;;;;;;;23.27;16.50;;;;;;;;;;5035477;28;20067;-87
2022/11/19 05:20:40;;;;;;;23.58;16.50;;;;;;;;;;5036232;28;20139;-87
2022/11/19 05:23:08;;;;;;;22.17;16.25;;;;;;;;;;5037026;28;20063;-85
2022/11/19 05:25:35;;;;;;;24.17;16.40;;;;;;;;;;5042846;28;20056;-85
2022/11/19 05:28:02;;;;;;;22.67;15.40;;;;;;;;;;5036592;28;20056;-85
2022/11/19 05:30:30;;;;;;;20.70;15.73;;;;;;;;;;5036461;28;20049;-88
2022/11/19 05:32:57;;;;;;;22.50;16.05;;;;;;;;;;5036389;28;20059;-85
2022/11/19 05:35:24;;;;;;;22.17;16.35;;;;;;;;;;5053903;28;20053;-85
2022/11/19 05:37:51;;;;;;;27.23;17.10;;;;;;;;;;5036474;28;20044;-85
2022/11/19 05:40:18;;;;;;;22.23;15.05;;;;;;;;;;5036365;28;20103;-87
2022/11/19 05:42:45;;;;;;;21.73;15.48;;;;;;;;;;5036210;28;20045;-85
2022/11/19 05:45:13;;;;;;;24.65;16.05;;;;;;;;;;5028350;28;20060;-85
2022/11/19 05:47:40;;;;;;;23.80;16.02;;;;;;;;;;5036501;28;20051;-85
2022/11/19 05:50:14;;;;;;;25.17;16.65;;;;;;;;;;5037328;28;20455;-87
2022/11/19 05:52:41;;;;;;;29.92;17.25;;;;;;;;;;5036460;28;20544;-87
2022/11/19 05:55:08;;;;;;;23.42;15.98;;;;;;;;;;5036187;28;20053;-87
2022/11/19 05:57:36;;;;;;;35.85;24.02;;;;;;;;;;5052507;28;20063;-87
2022/11/19 06:00:04;;;;;;;28.38;20.00;;;;;;;;;;5052508;28;20059;-88
2022/11/19 06:02:31;;;;;;;46.70;33.47;;;;;;;;;;5035712;28;20080;-85
2022/11/19 06:05:01;;;;;;;33.22;18.63;;;;;;;;;;5036449;28;20049;-88
2022/11/19 06:07:28;;;;;;;26.00;19.00;;;;;;;;;;5035761;28;20055;-87
2022/11/19 06:09:56;;;;;;;28.02;19.40;;;;;;;;;;5036007;28;20052;-87
2022/11/19 06:12:23;;;;;;;28.65;19.42;;;;;;;;;;5035678;28;20053;-87
2022/11/19 06:14:50;;;;;;;26.30;17.90;;;;;;;;;;5035854;28;20078;-88
2022/11/19 06:17:17;;;;;;;25.73;18.17;;;;;;;;;;5036109;28;20052;-85
2022/11/19 06:19:44;;;;;;;26.50;18.95;;;;;;;;;;5031942;28;20053;-86
2022/11/19 06:22:12;;;;;;;30.77;20.90;;;;;;;;;;5032330;28;20947;-86
2022/11/19 06:24:39;;;;;;;28.02;18.65;;;;;;;;;;5032259;28;20079;-85
2022/11/19 06:27:06;;;;;;;37.60;26.88;;;;;;;;;;5032564;28;20414;-85
2022/11/19 06:29:33;;;;;;;26.20;18.55;;;;;;;;;;5033679;28;20511;-85
2022/11/19 06:32:00;;;;;;;38.15;25.80;;;;;;;;;;5036323;28;20425;-85
2022/11/19 06:34:27;;;;;;;29.45;19.92;;;;;;;;;;5036366;28;20046;-85
2022/11/19 06:36:55;;;;;;;30.13;20.23;;;;;;;;;;5036707;28;20075;-86
2022/11/19 06:39:22;;;;;;;28.38;19.17;;;;;;;;;;5044147;28;20049;-87
2022/11/19 06:41:49;;;;;;;26.83;16.95;;;;;;;;;;5037735;28;20092;-85
2022/11/19 06:44:17;;;;;;;23.83;16.88;;;;;;;;;;5036177;28;20417;-86
2022/11/19 06:46:44;;;;;;;24.23;16.88;;;;;;;;;;5036259;28;20401;-85
2022/11/19 06:49:11;;;;;;;25.85;16.90;;;;;;;;;;5036067;28;20057;-85
2022/11/19 06:51:46;;;;;;;24.05;16.52;;;;;;;;;;5035970;28;20060;-85
2022/11/19 06:54:13;;;;;;;25.42;17.80;;;;;;;;;;5036132;28;20076;-86
2022/11/19 06:56:40;;;;;;;26.20;17.35;;;;;;;;;;5036164;28;20057;-86
2022/11/19 06:59:07;;;;;;;25.38;17.02;;;;;;;;;;5036082;28;20046;-85
2022/11/19 07:01:34;;;;;;;25.15;17.80;;;;;;;;;;5035760;28;20046;-85
2022/11/19 07:04:02;;;;;;;27.77;18.60;;;;;;;;;;5035902;28;20144;-85
2022/11/19 07:06:29;;;;;;;28.77;20.42;;;;;;;;;;5035783;28;20064;-85
2022/11/19 07:08:56;;;;;;;25.45;18.08;;;;;;;;;;5035878;28;20061;-85
2022/11/19 07:11:26;;;;;;;26.30;18.40;;;;;;;;;;5035571;28;20520;-86
2022/11/19 07:13:57;;;;;;;23.38;16.98;;;;;;;;;;5035777;28;20060;-85
2022/11/19 07:16:32;;;;;;;23.98;16.48;;;;;;;;;;5032278;28;20133;-86
2022/11/19 07:19:00;;;;;;;28.23;17.30;;;;;;;;;;5048112;28;20053;-85
2022/11/19 07:21:28;;;;;;;26.30;17.50;;;;;;;;;;5038568;28;20132;-85
2022/11/19 07:23:56;;;;;;;25.17;17.10;;;;;;;;;;5038714;28;20056;-85
2022/11/19 07:26:23;;;;;;;24.70;16.33;;;;;;;;;;5038926;28;20136;-85
2022/11/19 07:28:51;;;;;;;27.90;18.25;;;;;;;;;;5038746;28;20064;-85
2022/11/19 07:31:18;;;;;;;23.90;16.52;;;;;;;;;;5038573;28;20049;-85
2022/11/19 07:33:45;;;;;;;48.45;39.63;;;;;;;;;;5038868;28;20053;-85
2022/11/19 07:36:13;;;;;;;29.13;19.63;;;;;;;;;;5038932;28;20053;-85
2022/11/19 07:38:45;;;;;;;26.25;18.80;;;;;;;;;;5039504;28;20475;-85
2022/11/19 07:43:59;;;;;;;28.88;18.35;;;;;;;;;;5056238;28;20060;-85
2022/11/19 07:46:26;;;;;;;25.85;17.33;;;;;;;;;;5038300;28;20049;-85
2022/11/19 07:48:53;;;;;;;25.58;17.13;;;;;;;;;;5038581;28;20068;-85
2022/11/19 07:51:21;;;;;;;22.88;16.55;;;;;;;;;;5038180;28;20045;-85
2022/11/19 07:53:48;;;;;;;21.58;15.75;;;;;;;;;;5063475;28;20124;-88
2022/11/19 07:56:16;;;;;;;23.73;16.35;;;;;;;;;;5043093;28;20049;-85
2022/11/19 07:58:43;;;;;;;22.08;15.35;;;;;;;;;;5038368;28;20052;-85
2022/11/19 08:01:11;;;;;;;26.23;17.50;;;;;;;;;;5038146;28;20049;-86
2022/11/19 08:03:40;;;;;;;24.50;16.13;;;;;;;;;;5038421;28;20163;-85
2022/11/19 08:06:08;;;;;;;22.75;15.93;;;;;;;;;;5038055;28;20049;-85
2022/11/19 08:08:36;;;;;;;23.25;15.70;;;;;;;;;;5037651;28;20057;-85
2022/11/19 08:11:06;;;;;;;22.48;16.05;;;;;;;;;;5055675;28;20052;-87
2022/11/19 08:13:34;;;;;;;25.40;18.08;;;;;;;;;;5037885;28;20053;-85
2022/11/19 08:16:02;;;;;;;23.75;17.23;;;;;;;;;;5038015;28;20045;-85
2022/11/19 08:18:29;;;;;;;21.77;16.58;;;;;;;;;;5034193;28;20057;-85
2022/11/19 08:21:05;;;;;;;21.88;15.52;;;;;;;;;;5034423;28;20045;-84
2022/11/19 08:23:32;;;;;;;24.73;16.15;;;;;;;;;;5034296;28;20409;-85
2022/11/19 08:26:00;;;;;;;24.45;16.52;;;;;;;;;;5033988;28;20528;-85
2022/11/19 08:28:27;;;;;;;21.98;15.73;;;;;;;;;;5033898;28;20049;-85
2022/11/19 08:30:54;;;;;;;25.77;17.10;;;;;;;;;;5033981;28;20508;-86
2022/11/19 08:33:22;;;;;;;24.52;17.00;;;;;;;;;;5035186;28;20398;-85
2022/11/19 08:35:53;;;;;;;24.65;17.00;;;;;;;;;;5034919;28;20045;-85
2022/11/19 08:38:21;;;;;;;26.45;16.85;;;;;;;;;;5034020;28;20053;-86
2022/11/19 08:40:52;;;;;;;24.98;16.73;;;;;;;;;;5034345;28;20045;-85
2022/11/19 08:43:19;;;;;;;24.75;16.48;;;;;;;;;;5033978;28;20053;-85
2022/11/19 08:45:52;;;;;;;23.33;16.20;;;;;;;;;;5033792;28;20049;-86
2022/11/19 08:48:19;;;;;;;25.77;17.30;;;;;;;;;;5034213;28;20060;-87
2022/11/19 08:50:47;;;;;;;24.88;16.20;;;;;;;;;;5034340;28;20053;-86
2022/11/19 08:53:14;;;;;;;24.02;17.10;;;;;;;;;;5032842;28;20049;-86
2022/11/19 08:55:41;;;;;;;24.38;17.42;;;;;;;;;;5034148;28;20056;-89
2022/11/19 08:58:10;;;;;;;21.27;15.63;;;;;;;;;;5034454;28;20073;-87
2022/11/19 09:00:38;;;;;;;22.95;16.27;;;;;;;;;;5033863;28;20049;-87
2022/11/19 09:03:05;;;;;;;24.40;16.65;;;;;;;;;;5034578;28;20050;-87
2022/11/19 09:05:32;;;;;;;25.30;17.65;;;;;;;;;;5034274;28;20057;-87
2022/11/19 09:07:59;;;;;;;24.52;16.88;;;;;;;;;;5035533;28;20504;-87
2022/11/19 09:10:27;;;;;;;25.27;16.88;;;;;;;;;;5038952;28;20050;-87
2022/11/19 09:12:54;;;;;;;25.17;16.85;;;;;;;;;;5033984;28;20053;-87
2022/11/19 09:15:21;;;;;;;22.08;15.57;;;;;;;;;;5033534;28;20064;-87
2022/11/19 09:17:49;;;;;;;28.25;17.08;;;;;;;;;;5036645;28;20083;-87
2022/11/19 09:20:16;;;;;;;22.92;16.15;;;;;;;;;;5036688;28;20053;-86
2022/11/19 09:22:43;;;;;;;22.23;16.70;;;;;;;;;;5036724;28;20084;-86
2022/11/19 09:25:11;;;;;;;22.15;15.48;;;;;;;;;;5036320;28;20057;-86
2022/11/19 09:27:38;;;;;;;22.80;16.40;;;;;;;;;;5054011;28;20057;-86
2022/11/19 09:30:06;;;;;;;21.73;15.32;;;;;;;;;;5036626;28;20041;-86
2022/11/19 09:32:33;;;;;;;22.02;15.65;;;;;;;;;;5036323;28;20055;-87
2022/11/19 09:35:00;;;;;;;22.27;15.85;;;;;;;;;;5036336;28;20041;-87
2022/11/19 09:37:30;;;;;;;20.60;15.48;;;;;;;;;;5036456;28;20049;-86
2022/11/19 09:39:57;;;;;;;25.13;16.70;;;;;;;;;;5036845;28;20053;-87
2022/11/19 09:42:35;;;;;;;22.40;14.95;;;;;;;;;;5041612;28;20056;-87
2022/11/19 09:45:08;;;;;;;437.30;169.93;;;;;;;;;;5036594;28;20052;-86
2022/11/19 09:47:36;;;;;;;;;;;;;;;;;;5036631;28;20135;-87
2022/11/19 09:50:18;;;;;;;86.30;37.50;;;;;;;;;;5052776;28;20019;-86
2022/11/19 09:52:54;;;;;;;39.03;20.15;;;;;;;;;;5035201;28;20091;-87
2022/11/19 09:55:30;;;;;;;20.67;14.95;;;;;;;;;;5036315;28;20045;-88
2022/11/19 09:58:00;;;;;;;29.67;19.10;;;;;;;;;;5036458;28;20106;-87
2022/11/19 10:00:29;;;;;;;25.52;16.80;;;;;;;;;;5036047;28;20051;-86
2022/11/19 10:02:57;;;;;;;25.48;18.20;;;;;;;;;;5035928;28;20052;-87
2022/11/19 10:05:44;;;;;;;25.42;17.40;;;;;;;;;;5035694;28;20056;-86
2022/11/19 10:08:32;;;;;;;19.73;14.77;;;;;;;;;;5029233;28;20056;-86
2022/11/19 10:11:10;;;;;;;24.55;16.52;;;;;;;;;;5035697;28;20055;-86
2022/11/19 10:13:46;;;;;;;23.15;15.13;;;;;;;;;;5035069;28;20045;-87
2022/11/19 10:16:13;;;;;;;22.00;15.05;;;;;;;;;;5036015;28;20049;-87
2022/11/19 10:18:48;;;;;;;20.90;14.73;;;;;;;;;;5032106;28;20068;-87
2022/11/19 10:21:26;;;;;;;21.42;14.73;;;;;;;;;;5032346;28;20050;-86
2022/11/19 10:24:16;;;;;;;20.60;15.50;;;;;;;;;;5032795;28;20045;-86
2022/11/19 10:26:57;;;;;;;20.25;14.57;;;;;;;;;;5033027;28;20483;-86
2022/11/19 10:29:25;;;;;;;25.92;18.10;;;;;;;;;;5032997;28;20053;-86
2022/11/19 10:31:53;;;;;;;24.45;16.35;;;;;;;;;;5032612;28;20053;-86
2022/11/19 10:34:32;;;;;;;22.23;15.35;;;;;;;;;;5032701;28;20512;-86
2022/11/19 10:36:59;;;;;;;24.85;16.50;;;;;;;;;;5032850;28;20076;-87
2022/11/19 10:39:55;;;;;;;17.88;13.70;;;;;;;;;;5032499;28;20073;-87
2022/11/19 10:42:23;;;;;;;39.65;21.88;;;;;;;;;;5007444;28;20107;-87
2022/11/19 10:45:14;;;;;;;31.58;20.65;;;;;;;;;;5031966;28;20080;-86
2022/11/19 10:48:00;;;;;;;27.02;18.20;;;;;;;;;;5032341;28;20494;-86
2022/11/19 10:50:34;;;;;;;22.42;15.70;;;;;;;;;;5032838;28;20115;-86
2022/11/19 10:53:13;;;;;;;23.38;14.55;;;;;;;;;;5032136;28;20056;-86
2022/11/19 10:55:48;;;;;;;20.50;14.55;;;;;;;;;;5032569;28;20474;-86
2022/11/19 10:58:25;;;;;;;21.13;13.88;;;;;;;;;;5032436;28;20390;-86
2022/11/19 11:00:53;;;;;;;21.15;14.48;;;;;;;;;;5032508;28;20129;-86
2022/11/19 11:03:24;;;;;;;19.63;14.38;;;;;;;;;;5032577;28;20056;-86
2022/11/19 11:05:54;;;;;;;19.40;14.85;;;;;;;;;;5032257;28;20045;-86
2022/11/19 11:08:21;;;;;;;17.00;13.82;;;;;;;;;;5032005;28;20049;-86
2022/11/19 11:10:50;;;;;;;19.20;14.48;;;;;;;;;;5031930;28;20056;-85
2022/11/19 11:16:12;;;;;;;22.05;14.18;;;;;;;;;;5036009;28;20073;-86
2022/11/19 11:18:40;;;;;;;17.38;13.70;;;;;;;;;;5039283;28;20139;-86
2022/11/19 11:21:12;;;;;;;19.63;14.30;;;;;;;;;;5055912;28;20485;-86
2022/11/19 11:23:47;;;;;;;19.35;13.85;;;;;;;;;;5056578;28;20108;-86
2022/11/19 11:26:18;;;;;;;19.05;13.65;;;;;;;;;;5056471;28;20485;-86
2022/11/19 11:29:04;;;;;;;19.00;14.18;;;;;;;;;;5056333;28;20412;-86
2022/11/19 11:31:33;;;;;;;20.20;14.32;;;;;;;;;;5056741;28;20095;-86
2022/11/19 11:34:01;;;;;;;19.05;14.23;;;;;;;;;;5055543;28;20139;-86
2022/11/19 11:36:30;;;;;;;19.40;14.68;;;;;;;;;;5058263;28;20041;-86
2022/11/19 11:39:00;;;;;;;23.08;14.95;;;;;;;;;;5064255;28;20049;-85
2022/11/19 11:41:35;;;;;;;21.65;14.73;;;;;;;;;;5059696;28;20067;-86
2022/11/19 11:44:23;;;;;;;20.70;14.80;;;;;;;;;;5054958;28;20048;-86
2022/11/19 11:46:53;;;;;;;22.80;16.58;;;;;;;;;;5055143;28;20409;-86
2022/11/19 11:49:34;;;;;;;25.17;16.75;;;;;;;;;;5055132;28;20045;-86
2022/11/19 11:52:16;;;;;;;26.02;16.25;;;;;;;;;;5055051;28;20048;-86
2022/11/19 11:54:53;;;;;;;25.67;17.45;;;;;;;;;;5054995;28;20409;-86
2022/11/19 11:57:22;;;;;;;23.70;17.25;;;;;;;;;;5054643;28;20507;-85
2022/11/19 11:59:49;;;;;;;25.33;18.25;;;;;;;;;;5054794;28;20063;-86
2022/11/19 12:02:25;;;;;;;21.23;15.05;;;;;;;;;;5054644;28;20041;-86
2022/11/19 12:04:54;;;;;;;32.08;21.25;;;;;;;;;;5038169;28;20401;-86
2022/11/19 12:07:21;;;;;;;28.02;18.55;;;;;;;;;;5038964;28;20053;-86
2022/11/19 12:10:02;;;;;;;36.92;19.77;;;;;;;;;;5037896;28;20045;-87
2022/11/19 12:12:36;;;;;;;60.28;27.77;;;;;;;;;;5038191;28;20134;-86
2022/11/19 12:15:25;;;;;;;68.72;32.30;;;;;;;;;;5037919;28;20494;-86
2022/11/19 12:18:10;;;;;;;26.88;17.90;;;;;;;;;;5037701;28;20056;-85
2022/11/19 12:20:39;;;;;;;36.58;21.92;;;;;;;;;;5037774;28;20094;-86
2022/11/19 12:23:13;;;;;;;28.75;18.05;;;;;;;;;;5038016;28;20053;-85
2022/11/19 12:25:47;;;;;;;28.10;18.38;;;;;;;;;;5037618;28;20469;-86
2022/11/19 12:28:36;;;;;;;26.85;18.27;;;;;;;;;;5037701;28;20519;-86
2022/11/19 12:31:18;;;;;;;30.98;18.17;;;;;;;;;;5038160;28;20436;-86
2022/11/19 12:33:48;;;;;;;27.75;18.45;;;;;;;;;;5055104;28;20053;-85
2022/11/19 12:36:19;;;;;;;29.30;17.80;;;;;;;;;;5037640;28;20071;-86
2022/11/19 12:38:49;;;;;;;27.50;18.30;;;;;;;;;;5037790;28;20053;-85
2022/11/19 12:41:28;;;;;;;28.35;18.02;;;;;;;;;;5037788;28;20055;-86
2022/11/19 12:44:00;;;;;;;30.52;18.27;;;;;;;;;;5037584;28;20053;-86
2022/11/19 12:46:45;;;;;;;25.48;17.30;;;;;;;;;;5037733;28;20049;-87
2022/11/19 12:49:22;;;;;;;22.48;16.67;;;;;;;;;;5037678;28;20074;-87
2022/11/19 12:52:02;;;;;;;27.35;16.60;;;;;;;;;;5037985;28;20079;-87
2022/11/19 12:54:35;;;;;;;23.13;16.02;;;;;;;;;;5038054;28;20049;-87
2022/11/19 12:57:23;;;;;;;26.20;17.88;;;;;;;;;;5051890;28;20029;-86
2022/11/19 13:00:09;;;;;;;27.17;18.58;;;;;;;;;;5038143;28;20057;-87
2022/11/19 13:02:40;;;;;;;24.85;17.00;;;;;;;;;;5039415;28;20512;-86
2022/11/19 13:05:13;;;;;;;24.80;17.15;;;;;;;;;;5038225;28;20059;-87
2022/11/19 13:07:40;;;;;;;;;;;;;;;;;;5038355;28;20147;-88
2022/11/19 13:10:26;;;;;;;25.70;15.40;;;;;;;;;;5054501;28;20012;-88
2022/11/19 13:12:55;;;;;;;23.10;16.02;;;;;;;;;;5037506;28;20074;-88
2022/11/19 13:15:24;;;;;;;23.17;15.45;;;;;;;;;;5037648;28;20056;-88
2022/11/19 13:17:53;;;;;;;22.80;15.85;;;;;;;;;;5038258;28;20493;-88
2022/11/19 13:20:23;;;;;;;24.38;16.02;;;;;;;;;;5038741;28;20126;-88
2022/11/19 13:22:52;;;;;;;25.00;14.80;;;;;;;;;;5039096;28;20049;-88
2022/11/19 13:25:28;;;;;;;25.33;15.50;;;;;;;;;;5038100;28;20048;-88
2022/11/19 13:27:57;;;;;;;23.38;15.07;;;;;;;;;;5038364;28;20059;-89
2022/11/19 13:30:25;;;;;;;21.25;14.63;;;;;;;;;;5038950;28;20049;-90
2022/11/19 13:33:15;;;;;;;19.85;14.15;;;;;;;;;;5038060;28;20045;-89
2022/11/19 13:35:45;;;;;;;22.17;15.43;;;;;;;;;;5038429;28;20052;-90
2022/11/19 13:38:19;;;;;;;21.98;15.35;;;;;;;;;;5038108;28;20053;-91
2022/11/19 13:41:08;;;;;;;22.45;16.02;;;;;;;;;;5037969;28;20049;-90
2022/11/19 13:46:23;;;;;;;22.38;14.68;;;;;;;;;;5055695;28;20075;-90
2022/11/19 13:48:56;;;;;;;19.95;14.30;;;;;;;;;;5038106;28;20079;-90
2022/11/19 13:51:44;;;;;;;21.75;14.32;;;;;;;;;;5039238;28;20140;-89
2022/11/19 13:54:20;;;;;;;21.27;15.52;;;;;;;;;;5038348;28;20077;-90
2022/11/19 13:56:49;;;;;;;20.48;14.38;;;;;;;;;;5039234;28;20064;-89
2022/11/19 13:59:35;;;;;;;21.50;15.52;;;;;;;;;;5038265;28;20082;-89
2022/11/19 14:02:02;;;;;;;22.08;15.40;;;;;;;;;;5038020;28;20083;-89
2022/11/19 14:04:30;;;;;;;20.80;14.75;;;;;;;;;;5038055;28;20052;-89
2022/11/19 14:07:12;;;;;;;21.63;15.05;;;;;;;;;;5038797;28;20142;-90
2022/11/19 14:09:46;;;;;;;19.67;13.57;;;;;;;;;;5038896;28;20049;-90
2022/11/19 14:12:25;;;;;;;22.50;15.43;;;;;;;;;;5054769;28;20301;-89
2022/11/19 14:27:21;;;;;;;21.80;14.95;;;;;;;;;;5055655;28;20049;-91
2022/11/19 14:29:49;;;;;;;21.75;15.25;;;;;;;;;;5037569;28;20139;-90
2022/11/19 14:32:16;;;;;;;21.10;14.98;;;;;;;;;;5037676;28;20071;-90
2022/11/19 14:35:07;;;;;;;20.58;14.48;;;;;;;;;;5037989;28;20049;-89
2022/11/19 14:37:58;;;;;;;21.88;15.40;;;;;;;;;;5038010;28;20084;-89
2022/11/19 14:40:30;;;;;;;21.60;13.95;;;;;;;;;;5006364;28;20058;-90
2022/11/19 14:46:01;;;;;;;23.85;15.40;;;;;;;;;;5065839;28;20049;-90
2022/11/19 14:48:29;;;;;;;22.73;14.60;;;;;;;;;;5038688;28;20136;-90
2022/11/19 14:51:01;;;;;;;22.20;14.68;;;;;;;;;;5040274;28;20378;-90
2022/11/19 14:53:28;;;;;;;24.23;15.77;;;;;;;;;;5042300;28;20049;-90
2022/11/19 14:55:56;;;;;;;22.50;15.60;;;;;;;;;;5041860;28;20053;-90
2022/11/19 14:58:24;;;;;;;89.63;56.00;;;;;;;;;;5042183;28;20041;-89
2022/11/19 15:01:04;;;;;;;229.85;118.13;;;;;;;;;;5041949;28;20147;-90
2022/11/19 15:03:32;;;;;;;87.72;49.85;;;;;;;;;;5041694;28;20079;-90
2022/11/19 15:06:04;;;;;;;105.90;61.95;;;;;;;;;;5042072;28;20485;-91
2022/11/19 15:08:51;;;;;;;60.60;36.78;;;;;;;;;;5041636;28;20098;-90
2022/11/19 15:11:19;;;;;;;47.00;28.70;;;;;;;;;;5042119;28;20155;-91
2022/11/19 15:13:47;;;;;;;24.98;17.20;;;;;;;;;;5041648;28;20131;-90
2022/11/19 15:16:14;;;;;;;27.40;17.35;;;;;;;;;;5041479;28;20152;-90
2022/11/19 15:18:42;;;;;;;25.30;16.63;;;;;;;;;;5040435;28;20057;-91
2022/11/19 15:21:28;;;;;;;24.90;17.00;;;;;;;;;;5040984;28;20049;-90
2022/11/19 15:23:55;;;;;;;23.67;16.25;;;;;;;;;;5040829;28;20512;-89